Time;durP1;ratioP1;P1;durP2;ratioP2;P2;SDS_P1;SDS_P2;PMS_P1;PMS_P2;Temp;Humidity;BMP_temperature;BMP_pressure;BME280_temperature;BME280_humidity;BME280_pressure;Samples;Min_cycle;Max_cycle;Signal;HPM_P1;HPM_P2
2022/05/09 00:00:20;;;;;;;9.70;5.30;;;;;;;15.84;100.00;101940.34;1923274;73;21479;-72
2022/05/09 00:02:48;;;;;;;9.43;5.97;;;;;;;15.74;100.00;101945.53;1958394;72;21031;-72
2022/05/09 00:05:18;;;;;;;14.30;5.72;;;;;;;15.84;100.00;101937.34;1958124;72;21580;-72
2022/05/09 00:07:46;;;;;;;9.68;5.33;;;;;;;15.82;100.00;101939.50;1958403;72;21034;-72
2022/05/09 00:10:16;;;;;;;12.75;5.80;;;;;;;15.63;100.00;101928.25;1958397;72;21040;-72
2022/05/09 00:12:44;;;;;;;9.75;5.75;;;;;;;15.59;100.00;101929.95;1972440;72;21087;-72
2022/05/09 00:15:13;;;;;;;9.50;5.30;;;;;;;15.52;100.00;101924.32;1962608;72;21174;-71
2022/05/09 00:17:40;;;;;;;11.05;6.80;;;;;;;15.51;100.00;101922.60;1921409;73;21162;-72
2022/05/09 00:20:09;;;;;;;8.40;5.85;;;;;;;15.37;100.00;101926.03;1958169;72;21138;-72
2022/05/09 00:22:51;;;;;;;7.97;5.78;;;;;;;15.54;100.00;101927.38;1958212;72;21057;-72
2022/05/09 00:25:21;;;;;;;10.65;6.28;;;;;;;15.41;100.00;101926.48;1952497;72;21147;-71
2022/05/09 00:27:49;;;;;;;11.50;6.30;;;;;;;15.53;100.00;101926.08;1936496;74;21529;-71
2022/05/09 00:30:18;;;;;;;10.28;6.72;;;;;;;15.61;100.00;101921.31;1936573;72;21165;-72
2022/05/09 00:32:45;;;;;;;11.43;6.45;;;;;;;15.66;100.00;101920.46;1936749;73;21110;-71
2022/05/09 00:35:14;;;;;;;11.05;5.72;;;;;;;15.53;100.00;101912.67;1936364;73;21128;-71
2022/05/09 00:37:41;;;;;;;11.57;6.35;;;;;;;15.57;100.00;101914.86;1936667;74;21625;-71
2022/05/09 00:40:11;;;;;;;8.73;6.17;;;;;;;15.83;100.00;101911.42;1929292;72;21003;-72
2022/05/09 00:42:40;;;;;;;10.05;5.53;;;;;;;15.88;100.00;101911.43;1928927;73;21062;-72
2022/05/09 00:45:09;;;;;;;8.38;5.72;;;;;;;15.99;100.00;101896.78;1928730;74;21101;-71
2022/05/09 00:47:36;;;;;;;9.75;6.58;;;;;;;15.56;100.00;101897.56;1905489;73;21053;-71
2022/05/09 00:50:06;;;;;;;11.80;6.40;;;;;;;15.42;100.00;101888.48;1929127;74;21006;-72
2022/05/09 00:52:39;;;;;;;9.43;6.03;;;;;;;15.36;100.00;101888.06;1934648;73;21051;-71
2022/05/09 00:55:10;;;;;;;12.20;6.58;;;;;;;15.50;100.00;101885.92;1936216;74;21504;-71
2022/05/09 00:57:56;;;;;;;11.00;5.72;;;;;;;15.38;100.00;101877.27;1935935;73;21120;-72
2022/05/09 01:00:25;;;;;;;12.25;6.50;;;;;;;15.48;100.00;101876.84;1936695;74;21119;-72
2022/05/09 01:03:05;;;;;;;10.30;6.15;;;;;;;15.48;100.00;101868.66;1911580;74;21042;-72
2022/05/09 01:05:32;;;;;;;11.45;6.25;;;;;;;15.47;100.00;101863.47;1935879;74;21058;-71
2022/05/09 01:08:00;;;;;;;11.50;6.62;;;;;;;15.28;100.00;101854.37;1936484;74;21078;-72
2022/05/09 01:10:31;;;;;;;13.68;7.05;;;;;;;15.25;100.00;101855.66;1912702;73;21042;-72
2022/05/09 01:13:01;;;;;;;10.98;6.03;;;;;;;15.32;100.00;101859.98;1935698;73;21116;-71
2022/05/09 01:15:29;;;;;;;11.70;6.45;;;;;;;15.45;100.00;101863.89;1912508;74;21612;-72
2022/05/09 01:17:57;;;;;;;9.40;6.17;;;;;;;15.54;100.00;101860.03;1936670;73;21139;-72
2022/05/09 01:20:24;;;;;;;12.43;6.85;;;;;;;15.60;100.00;101847.52;1936524;74;21099;-72
2022/05/09 01:22:55;;;;;;;12.25;6.37;;;;;;;15.58;100.00;101844.92;1936496;73;21030;-71
2022/05/09 01:25:23;;;;;;;13.55;6.97;;;;;;;15.64;100.00;101847.08;1936728;73;21086;-72
2022/05/09 01:27:50;;;;;;;12.07;6.53;;;;;;;15.59;100.00;101844.47;1925723;72;21017;-71
2022/05/09 01:30:39;;;;;;;17.23;7.83;;;;;;;15.47;100.00;101844.05;1955760;72;21058;-72
2022/05/09 01:33:09;;;;;;;12.37;7.00;;;;;;;15.51;100.00;101841.89;1955945;72;21084;-71
2022/05/09 01:36:00;;;;;;;12.88;7.30;;;;;;;15.41;100.00;101838.85;1955720;73;21174;-71
2022/05/09 01:38:42;;;;;;;12.95;7.33;;;;;;;15.45;100.00;101844.05;1955593;72;21108;-72
2022/05/09 01:41:10;;;;;;;15.95;7.15;;;;;;;15.48;100.00;101841.89;1955704;72;21498;-72
2022/05/09 01:43:43;;;;;;;13.85;7.40;;;;;;;15.49;100.00;101829.36;1951004;72;21089;-72
2022/05/09 01:46:11;;;;;;;;;;;;;;;15.48;100.00;101836.28;1954230;72;21110;-71
2022/05/09 01:51:25;;;;;;;11.68;6.87;;;;;;;15.64;100.00;101831.11;1951309;72;21042;-71
2022/05/09 01:53:52;;;;;;;13.62;7.50;;;;;;;15.77;100.00;101832.41;1950569;72;21175;-72
2022/05/09 01:56:32;;;;;;;11.88;7.00;;;;;;;15.72;100.00;101826.80;1951017;72;21136;-72
2022/05/09 01:59:00;;;;;;;13.13;7.30;;;;;;;15.62;100.00;101822.47;1950885;72;21021;-71
2022/05/09 02:01:30;;;;;;;13.38;7.45;;;;;;;15.39;100.00;101824.60;1951408;72;21110;-71
2022/05/09 02:03:57;;;;;;;12.23;7.70;;;;;;;15.30;100.00;101832.37;1925115;72;21098;-72
2022/05/09 02:06:25;;;;;;;17.12;7.40;;;;;;;15.21;100.00;101830.20;1955653;73;21340;-72
2022/05/09 02:08:52;;;;;;;11.18;6.58;;;;;;;15.20;100.00;101827.61;1955413;72;21097;-72
2022/05/09 02:11:20;;;;;;;13.08;7.80;;;;;;;15.14;100.00;101836.22;1951373;72;21146;-72
2022/05/09 02:13:47;;;;;;;16.27;8.35;;;;;;;15.11;100.00;101834.91;1955775;72;21032;-72
2022/05/09 02:16:15;;;;;;;12.85;7.83;;;;;;;15.07;100.00;101837.94;1955866;72;21034;-72
2022/05/09 02:18:43;;;;;;;15.95;8.08;;;;;;;14.97;100.00;101834.88;1954398;72;21098;-72
2022/05/09 02:21:10;;;;;;;13.95;7.25;;;;;;;14.89;100.00;101830.98;1951063;72;21160;-72
2022/05/09 02:23:38;;;;;;;16.97;8.85;;;;;;;15.09;100.00;101827.59;1951223;72;21167;-72
2022/05/09 02:26:07;;;;;;;22.85;7.92;;;;;;;15.19;100.00;101835.79;1951097;72;21082;-72
2022/05/09 02:28:34;;;;;;;14.00;7.40;;;;;;;15.14;100.00;101829.75;1921524;73;21126;-72
2022/05/09 02:31:03;;;;;;;17.32;9.18;;;;;;;15.18;100.00;101825.43;1917208;73;21128;-72
2022/05/09 02:33:30;;;;;;;13.83;8.23;;;;;;;15.12;100.00;101819.84;1917007;73;21001;-72
2022/05/09 02:35:57;;;;;;;16.65;8.50;;;;;;;15.10;100.00;101815.08;1917309;73;21124;-72
2022/05/09 02:38:28;;;;;;;17.10;8.75;;;;;;;14.97;100.00;101806.41;1916669;73;21102;-72
2022/05/09 02:40:55;;;;;;;14.33;8.38;;;;;;;15.02;100.00;101807.73;1917180;73;21054;-72
2022/05/09 02:43:22;;;;;;;16.20;8.10;;;;;;;15.02;100.00;101807.73;1923021;72;21193;-72
2022/05/09 02:45:50;;;;;;;15.85;8.98;;;;;;;15.03;100.00;101806.44;1950928;72;21045;-72
2022/05/09 02:48:18;;;;;;;14.98;8.85;;;;;;;15.06;100.00;101801.28;1918889;73;21031;-72
2022/05/09 02:50:45;;;;;;;14.40;9.58;;;;;;;15.03;100.00;101806.86;1916802;73;21072;-72
2022/05/09 02:53:13;;;;;;;17.30;9.08;;;;;;;14.93;100.00;101800.80;1917350;73;21030;-72
2022/05/09 02:55:40;;;;;;;16.12;8.03;;;;;;;14.96;100.00;101809.45;1917058;73;21132;-72
2022/05/09 02:58:08;;;;;;;14.40;7.83;;;;;;;14.92;100.00;101803.83;1917216;73;21069;-72
2022/05/09 03:00:35;;;;;;;16.80;8.33;;;;;;;14.85;100.00;101803.37;1917070;73;21017;-72
2022/05/09 03:05:49;;;;;;;15.35;7.92;;;;;;;14.66;100.00;101796.80;1945500;72;21589;-72
2022/05/09 03:08:18;;;;;;;16.52;8.13;;;;;;;14.71;100.00;101804.14;1951579;72;21115;-72
2022/05/09 03:10:46;;;;;;;17.12;8.48;;;;;;;14.76;100.00;101799.41;1951316;72;21083;-72
2022/05/09 03:13:14;;;;;;;15.25;8.83;;;;;;;14.85;100.00;101803.37;1919682;73;21054;-72
2022/05/09 03:15:47;;;;;;;16.75;9.30;;;;;;;14.70;100.00;101801.58;1917298;73;21068;-72
2022/05/09 03:18:17;;;;;;;17.35;9.20;;;;;;;14.75;100.00;101808.91;1917776;74;21073;-72
2022/05/09 03:20:45;;;;;;;13.72;8.10;;;;;;;14.78;100.00;101808.09;1917290;73;21037;-72
2022/05/09 03:23:13;;;;;;;14.60;7.58;;;;;;;14.72;100.00;101801.14;1916795;73;21140;-72
2022/05/09 03:25:41;;;;;;;18.32;8.33;;;;;;;14.79;100.00;101804.63;1917411;73;21041;-72
2022/05/09 03:28:11;;;;;;;13.98;7.90;;;;;;;14.77;100.00;101802.04;1934452;72;21136;-72
2022/05/09 03:30:40;;;;;;;14.95;8.85;;;;;;;14.80;100.00;101812.41;1956081;72;21042;-72
2022/05/09 03:33:08;;;;;;;15.28;7.78;;;;;;;14.62;100.00;101806.70;1955864;73;21612;-72
2022/05/09 03:35:36;;;;;;;16.75;8.43;;;;;;;14.64;100.00;101804.13;1955832;73;21179;-72
2022/05/09 03:38:03;;;;;;;14.05;8.40;;;;;;;14.58;100.00;101803.67;1955618;72;21041;-71
2022/05/09 03:40:31;;;;;;;14.03;7.65;;;;;;;14.61;100.00;101795.94;1950757;72;21153;-72
2022/05/09 03:42:59;;;;;;;13.90;8.05;;;;;;;14.53;100.00;101796.33;1951940;72;21025;-72
2022/05/09 03:45:28;;;;;;;15.65;7.95;;;;;;;14.62;100.00;101789.89;1955572;73;21162;-72
2022/05/09 03:47:55;;;;;;;17.85;9.10;;;;;;;14.71;100.00;101790.36;1955796;73;21502;-72
2022/05/09 03:50:23;;;;;;;15.72;8.78;;;;;;;14.64;100.00;101792.48;1955704;72;21243;-72
2022/05/09 03:52:50;;;;;;;13.48;7.85;;;;;;;14.64;100.00;101795.95;1954627;72;21008;-72
2022/05/09 03:55:18;;;;;;;13.18;7.35;;;;;;;14.57;100.00;101792.91;1951294;72;21126;-72
2022/05/09 03:57:56;;;;;;;11.53;7.47;;;;;;;14.58;100.00;101794.62;1925558;73;21033;-72
2022/05/09 04:00:26;;;;;;;13.75;8.33;;;;;;;14.57;100.00;101792.91;1958393;72;21115;-72
2022/05/09 04:02:53;;;;;;;16.95;8.48;;;;;;;14.54;100.00;101796.34;1955895;72;21045;-72
2022/05/09 04:05:21;;;;;;;17.52;9.08;;;;;;;14.49;100.00;101803.64;1955847;73;21069;-72
2022/05/09 04:07:51;;;;;;;13.43;8.20;;;;;;;14.50;100.00;101802.78;1956009;73;21101;-72
2022/05/09 04:10:22;;;;;;;14.23;9.00;;;;;;;14.49;100.00;101804.94;1955677;72;21521;-72
2022/05/09 04:12:49;;;;;;;13.40;8.30;;;;;;;14.48;100.00;101805.35;1954142;72;21083;-72
2022/05/09 04:18:04;;;;;;;11.38;7.40;;;;;;;14.48;100.00;101806.64;1953439;72;21065;-72
2022/05/09 04:20:31;;;;;;;14.05;8.10;;;;;;;14.54;100.00;101810.98;1954314;72;21541;-71
2022/05/09 04:23:00;;;;;;;13.70;7.97;;;;;;;14.59;100.00;101806.69;1958548;73;21108;-72
2022/05/09 04:25:31;;;;;;;12.40;8.30;;;;;;;14.58;100.00;101807.55;1955860;72;21077;-72
2022/05/09 04:28:02;;;;;;;12.68;7.15;;;;;;;14.55;100.00;101802.36;1926609;73;21135;-72
2022/05/09 04:30:32;;;;;;;14.70;8.30;;;;;;;14.48;100.00;101796.30;1962664;73;21061;-72
2022/05/09 04:33:00;;;;;;;15.60;9.40;;;;;;;14.47;100.00;101798.88;1961644;72;21026;-72
2022/05/09 04:35:29;;;;;;;14.28;8.43;;;;;;;14.39;100.00;101797.12;1962839;73;21150;-72
2022/05/09 04:37:57;;;;;;;14.80;8.68;;;;;;;14.39;100.00;101797.56;1962700;71;21077;-72
2022/05/09 04:40:30;;;;;;;16.65;9.15;;;;;;;14.41;100.00;101791.54;1958288;72;21490;-72
2022/05/09 04:42:59;;;;;;;11.53;7.97;;;;;;;14.48;100.00;101790.25;1961851;71;21139;-72
2022/05/09 04:45:29;;;;;;;11.70;7.28;;;;;;;14.53;100.00;101789.42;1962994;72;21077;-72
2022/05/09 04:47:56;;;;;;;14.50;7.97;;;;;;;14.56;100.00;101786.85;1959114;72;21510;-72
2022/05/09 04:50:26;;;;;;;14.55;8.35;;;;;;;14.52;100.00;101787.70;1960459;72;21010;-72
2022/05/09 04:52:54;;;;;;;13.20;8.55;;;;;;;14.58;100.00;101792.91;1962550;73;21065;-72
2022/05/09 04:55:21;;;;;;;16.80;8.45;;;;;;;14.74;100.00;101786.50;1962812;71;21069;-72
2022/05/09 04:57:50;;;;;;;12.75;6.95;;;;;;;14.86;100.00;101789.57;1961878;72;21658;-72
2022/05/09 05:00:20;;;;;;;15.63;7.45;;;;;;;14.94;100.00;101789.61;1961017;72;21135;-72
2022/05/09 05:02:48;;;;;;;16.35;7.78;;;;;;;14.98;100.00;101787.88;1962802;73;21502;-72
2022/05/09 05:05:15;;;;;;;12.05;6.95;;;;;;;15.06;100.00;101795.23;1923153;72;21065;-72
2022/05/09 05:07:43;;;;;;;16.45;8.55;;;;;;;15.26;100.00;101795.27;1958387;72;21042;-72
2022/05/09 05:10:11;;;;;;;10.90;6.83;;;;;;;15.29;100.00;101791.36;1960450;72;21196;-72
2022/05/09 05:12:39;;;;;;;11.50;7.47;;;;;;;15.33;100.00;101796.13;1934307;73;21018;-72
2022/05/09 05:15:08;;;;;;;13.20;6.87;;;;;;;15.48;100.00;101797.44;1962386;72;21208;-72
2022/05/09 05:17:37;;;;;;;11.10;7.58;;;;;;;15.58;100.00;101794.41;1962913;73;21041;-72
2022/05/09 05:20:09;;;;;;;12.95;6.47;;;;;;;15.60;100.00;101788.78;1962802;71;21132;-72
2022/05/09 05:22:38;;;;;;;9.95;7.12;;;;;;;15.69;100.00;101784.05;1962816;72;21420;-72
2022/05/09 05:25:07;;;;;;;11.35;7.25;;;;;;;15.90;100.00;101782.70;1962803;72;21089;-72
2022/05/09 05:27:34;;;;;;;15.63;8.33;;;;;;;15.95;100.00;101776.67;1962874;71;21027;-72
2022/05/09 05:30:02;;;;;;;9.55;5.92;;;;;;;15.94;100.00;101771.46;1943060;73;21193;-72
2022/05/09 05:32:34;;;;;;;12.68;6.95;;;;;;;16.06;100.00;101776.67;1915536;74;21585;-72
2022/05/09 05:35:02;;;;;;;14.10;6.95;;;;;;;15.98;100.00;101768.05;1935960;72;21144;-71
2022/05/09 05:37:29;;;;;;;10.55;6.70;;;;;;;16.14;100.00;101767.98;1912641;74;21085;-71
2022/05/09 05:39:57;;;;;;;11.93;6.97;;;;;;;16.08;100.00;101766.27;1912301;73;21006;-71
2022/05/09 05:42:25;;;;;;;11.00;7.08;;;;;;;16.04;100.00;101768.02;1934689;73;21069;-71
2022/05/09 05:44:52;;;;;;;9.90;6.65;;;;;;;16.14;100.00;101767.98;1934593;72;21116;-71
2022/05/09 05:47:20;;;;;;;12.58;7.53;;;;;;;16.14;100.00;101757.20;1934642;72;21588;-71
2022/05/09 05:49:48;;;;;;;10.03;6.83;;;;;;;16.16;100.00;101765.84;1934670;73;21021;-71
2022/05/09 05:52:17;;;;;;;10.63;6.60;;;;;;;16.21;100.00;101768.41;1910366;73;21026;-72
2022/05/09 05:54:46;;;;;;;11.57;7.55;;;;;;;16.24;100.00;101767.98;1940681;74;21139;-71
2022/05/09 05:57:22;;;;;;;17.37;7.40;;;;;;;16.17;100.00;101771.88;1942432;73;21087;-71
2022/05/09 05:59:52;;;;;;;12.10;7.62;;;;;;;16.34;100.00;101771.82;1942352;74;21661;-71
2022/05/09 06:02:19;;;;;;;16.02;8.20;;;;;;;16.27;100.00;101764.93;1936580;72;21501;-71
2022/05/09 06:04:48;;;;;;;13.65;7.28;;;;;;;16.61;100.00;101767.39;1934532;73;21523;-71
2022/05/09 06:07:16;;;;;;;17.00;8.43;;;;;;;16.39;100.00;101762.28;1916273;74;21111;-71
2022/05/09 06:09:45;;;;;;;12.98;7.55;;;;;;;16.35;100.00;101766.63;1942399;74;21075;-71
2022/05/09 06:12:15;;;;;;;15.03;7.92;;;;;;;16.39;100.00;101763.58;1942002;72;21127;-71
2022/05/09 06:14:42;;;;;;;15.90;8.90;;;;;;;16.45;100.00;101759.67;1942365;72;21165;-71
2022/05/09 06:17:11;;;;;;;11.75;7.45;;;;;;;16.67;100.00;101760.01;1942308;74;21528;-71
2022/05/09 06:19:40;;;;;;;16.62;8.43;;;;;;;16.78;100.00;101766.00;1942482;73;21547;-71
2022/05/09 06:22:07;;;;;;;13.68;7.85;;;;;;;16.74;100.00;101764.27;1937251;72;21065;-71
2022/05/09 06:24:35;;;;;;;14.20;7.22;;;;;;;16.89;100.00;101756.84;1942443;74;21560;-71
2022/05/09 06:27:03;;;;;;;12.45;6.85;;;;;;;16.91;100.00;101757.69;1935509;72;21134;-71
2022/05/09 06:29:31;;;;;;;15.30;9.10;;;;;;;16.92;100.00;101757.26;1949158;72;21081;-71
2022/05/09 06:31:59;;;;;;;14.73;7.78;;;;;;;16.92;100.00;101754.66;1963077;72;21192;-71
2022/05/09 06:34:26;;;;;;;14.38;8.38;;;;;;;17.03;100.00;101758.89;1963041;71;21061;-71
2022/05/09 06:36:54;;;;;;;12.95;8.33;;;;;;;17.21;100.00;101760.11;1962617;72;21091;-71
2022/05/09 06:39:21;;;;;;;12.43;7.47;;;;;;;17.38;100.00;101759.98;1962812;71;21037;-71
2022/05/09 06:41:49;;;;;;;13.00;7.85;;;;;;;17.39;100.00;101757.37;1962855;73;21018;-71
2022/05/09 06:44:17;;;;;;;13.30;7.50;;;;;;;17.54;100.00;101752.47;1962942;73;21077;-71
2022/05/09 06:46:44;;;;;;;13.48;8.45;;;;;;;17.80;100.00;101754.39;1962531;72;21085;-71
2022/05/09 06:49:11;;;;;;;13.08;8.15;;;;;;;18.20;100.00;101754.40;1923063;72;21013;-71
2022/05/09 06:51:39;;;;;;;14.60;8.00;;;;;;;18.20;100.00;101754.40;1958088;72;21120;-71
2022/05/09 06:54:06;;;;;;;11.80;7.47;;;;;;;18.55;100.00;101759.59;1961601;72;21115;-71
2022/05/09 06:56:34;;;;;;;11.18;6.92;;;;;;;18.66;100.00;101754.70;1962628;73;21089;-71
2022/05/09 06:59:01;;;;;;;14.55;7.28;;;;;;;18.76;100.00;101757.56;1963137;72;21017;-71
2022/05/09 07:01:28;;;;;;;11.75;7.53;;;;;;;18.79;100.00;101752.78;1962642;73;21112;-71
2022/05/09 07:03:56;;;;;;;15.72;7.35;;;;;;;19.27;100.00;101746.00;1962680;72;21100;-71
2022/05/09 07:06:23;;;;;;;10.32;6.58;;;;;;;19.38;100.00;101749.72;1961080;72;21013;-71
2022/05/09 07:08:51;;;;;;;12.82;8.13;;;;;;;19.57;100.00;101749.81;1957926;72;21091;-71
2022/05/09 07:11:18;;;;;;;14.30;7.97;;;;;;;19.75;100.00;101743.84;1958911;72;21009;-71
2022/05/09 07:13:45;;;;;;;11.93;7.75;;;;;;;19.62;100.00;101760.14;1962719;73;21025;-71
2022/05/09 07:16:13;;;;;;;16.42;8.45;;;;;;;19.62;100.00;101760.14;1961011;72;21123;-71
2022/05/09 07:18:41;;;;;;;10.38;6.87;;;;;;;19.55;100.00;101755.95;1958380;72;21115;-71
2022/05/09 07:21:09;;;;;;;13.08;8.03;;;;;;;19.96;100.00;101761.25;1958571;72;21083;-71
2022/05/09 07:23:37;;;;;;;24.47;12.68;;;;;;;20.62;100.00;101762.10;1922352;72;21065;-71
2022/05/09 07:26:04;;;;;;;33.30;16.30;;;;;;;20.83;100.00;101756.00;1962657;73;21113;-72
2022/05/09 07:28:32;;;;;;;37.40;21.20;;;;;;;20.59;100.00;101755.67;1959848;72;21117;-71
2022/05/09 07:31:01;;;;;;;24.77;13.18;;;;;;;20.77;100.00;101748.30;1962943;72;21123;-71
2022/05/09 07:33:29;;;;;;;34.92;17.00;;;;;;;20.61;100.00;101760.39;1925978;71;21027;-71
2022/05/09 07:35:58;;;;;;;12.23;7.97;;;;;;;21.05;100.00;101758.99;1962989;73;21158;-72
2022/05/09 07:38:25;;;;;;;12.37;7.58;;;;;;;20.71;100.00;101771.49;1922262;72;21470;-71
2022/05/09 07:40:54;;;;;;;12.98;7.12;;;;;;;20.78;100.00;101773.08;1958252;72;21001;-71
2022/05/09 07:43:24;;;;;;;23.50;10.40;;;;;;;20.52;100.00;101779.72;1958230;72;21434;-72
2022/05/09 07:45:55;;;;;;;49.88;24.12;;;;;;;21.01;100.00;101775.64;1958643;72;21065;-71
2022/05/09 07:48:23;;;;;;;20.05;10.72;;;;;;;21.25;100.00;101775.94;1958168;72;21065;-72
2022/05/09 07:50:51;;;;;;;15.85;8.33;;;;;;;21.61;100.00;101766.73;1958330;72;21045;-71
2022/05/09 07:53:24;;;;;;;13.80;7.40;;;;;;;21.96;100.00;101773.68;1921064;72;21025;-71
2022/05/09 07:55:52;;;;;;;15.65;8.73;;;;;;;21.29;100.00;101772.78;1957182;72;21064;-71
2022/05/09 07:58:21;;;;;;;25.57;10.72;;;;;;;22.15;100.00;101768.34;1957664;72;21144;-71
2022/05/09 08:00:48;;;;;;;12.45;6.83;;;;;;;22.43;100.00;101770.61;1922373;72;21069;-72
2022/05/09 08:03:19;;;;;;;14.25;7.95;;;;;;;21.98;100.00;101768.80;1962980;73;21025;-71
2022/05/09 08:05:46;;;;;;;18.42;8.45;;;;;;;22.10;100.00;101759.77;1960908;72;21088;-72
2022/05/09 08:08:14;;;;;;;17.77;8.73;;;;;;;22.26;100.00;101764.09;1958429;72;21017;-72
2022/05/09 08:10:42;;;;;;;18.77;10.25;;;;;;;22.02;100.00;101770.91;1958143;72;21025;-71
2022/05/09 08:13:12;;;;;;;11.95;7.05;;;;;;;22.17;100.00;101773.53;1962586;71;21076;-71
2022/05/09 08:15:39;;;;;;;18.20;7.87;;;;;;;22.33;100.00;101779.19;1962933;72;21494;-72
2022/05/09 08:18:06;;;;;;;8.95;6.17;;;;;;;21.82;100.00;101776.67;1960442;72;21049;-72
2022/05/09 08:20:37;;;;;;;13.58;7.30;;;;;;;22.20;100.00;101780.42;1958301;72;21022;-71
2022/05/09 08:23:06;;;;;;;13.28;8.03;;;;;;;21.60;100.00;101770.23;1961281;71;21070;-71
2022/05/09 08:25:36;;;;;;;13.62;7.87;;;;;;;22.01;100.00;101770.51;1962881;71;21073;-72
2022/05/09 08:28:05;;;;;;;12.93;7.22;;;;;;;21.81;100.00;101769.73;1962812;73;21065;-72
2022/05/09 08:30:34;;;;;;;14.43;6.90;;;;;;;21.75;100.00;101770.77;1924867;73;21084;-71
2022/05/09 08:33:03;;;;;;;11.50;7.62;;;;;;;22.30;100.00;101770.95;1950929;72;21102;-71
2022/05/09 08:35:31;;;;;;;9.20;6.10;;;;;;;22.27;100.00;101763.65;1951437;72;21070;-71
2022/05/09 08:37:58;;;;;;;13.58;8.30;;;;;;;21.81;100.00;101761.45;1951054;72;21816;-71
2022/05/09 08:40:38;;;;;;;16.30;7.97;;;;;;;21.49;100.00;101764.45;1951360;72;21021;-72
2022/05/09 08:43:21;;;;;;;10.55;6.72;;;;;;;21.16;100.00;101766.56;1951075;72;21029;-71
2022/05/09 08:45:51;;;;;;;12.90;7.80;;;;;;;21.81;100.00;101765.81;1951482;72;21028;-71
2022/05/09 08:48:32;;;;;;;12.00;7.00;;;;;;;21.58;100.00;101757.66;1951239;72;21027;-72
2022/05/09 08:51:11;;;;;;;10.78;7.42;;;;;;;21.84;100.00;101756.11;1951342;72;21155;-72
2022/05/09 08:53:41;;;;;;;13.88;7.85;;;;;;;22.00;100.00;101751.77;1951256;72;21083;-72
2022/05/09 08:56:16;;;;;;;12.20;7.55;;;;;;;21.94;100.00;101755.41;1951026;72;21524;-72
2022/05/09 08:58:51;;;;;;;12.50;7.00;;;;;;;21.94;100.00;101749.34;1951336;72;21158;-72
2022/05/09 09:01:45;;;;;;;17.07;8.25;;;;;;;21.95;100.00;101754.53;1942122;72;21111;-72
2022/05/09 09:04:24;;;;;;;10.63;7.35;;;;;;;21.85;100.00;101763.08;1903415;72;21231;-72
2022/05/09 09:07:16;;;;;;;12.25;7.37;;;;;;;22.82;100.00;101773.38;1953677;72;21029;-72
2022/05/09 09:09:55;;;;;;;9.35;7.50;;;;;;;22.75;100.00;101778.41;1956020;73;21046;-72
2022/05/09 09:12:28;;;;;;;12.18;7.58;;;;;;;23.45;100.00;101778.34;1954692;72;20987;-72
2022/05/09 09:15:32;;;;;;;13.65;7.85;;;;;;;22.72;100.00;101779.80;1956333;73;21073;-72
2022/05/09 09:18:12;;;;;;;12.33;7.92;;;;;;;23.23;100.00;101776.02;1956311;73;21019;-72
2022/05/09 09:21:03;;;;;;;10.58;6.05;;;;;;;22.51;100.00;101777.78;1954651;71;21535;-72
2022/05/09 09:24:01;;;;;;;15.28;7.25;;;;;;;23.13;100.00;101771.52;1954888;72;21065;-72
2022/05/09 09:26:43;;;;;;;15.20;7.67;;;;;;;22.54;100.00;101766.34;1955893;72;21022;-72
2022/05/09 09:29:19;;;;;;;31.70;15.70;;;;;;;22.56;100.00;101773.72;1955390;72;21167;-72
2022/05/09 09:31:49;;;;;;;15.72;8.33;;;;;;;23.25;100.00;101785.53;1961275;72;21089;-72
2022/05/09 09:34:50;;;;;;;12.95;8.43;;;;;;;23.61;100.00;101785.69;1961243;72;21065;-72
2022/05/09 09:37:21;;;;;;;15.95;7.78;;;;;;;23.26;100.00;101789.86;1963019;73;21625;-72
2022/05/09 09:39:47;;;;;;;10.88;7.25;;;;;;;;;;1962046;72;21108;-72
2022/05/09 09:42:15;;;;;;;21.33;12.03;;;;;;;23.11;100.00;101782.06;1958288;72;21054;-72
2022/05/09 09:44:45;;;;;;;27.67;12.63;;;;;;;22.81;100.00;101781.68;1922269;72;21183;-72
2022/05/09 09:47:25;;;;;;;15.18;8.55;;;;;;;23.40;100.00;101788.11;1963135;71;21045;-72
2022/05/09 09:50:14;;;;;;;15.13;7.78;;;;;;;23.34;100.00;101780.44;1960196;73;21050;-73
2022/05/09 09:52:56;;;;;;;11.38;7.05;;;;;;;23.47;100.00;101783.98;1960323;72;21032;-72
2022/05/09 09:55:26;;;;;;;10.28;6.92;;;;;;;23.92;100.00;101783.26;1962919;73;21145;-73
2022/05/09 09:57:55;;;;;;;10.93;7.10;;;;;;;23.67;100.00;101777.59;1962842;71;21479;-72
2022/05/09 10:00:31;;;;;;;11.25;6.95;;;;;;;24.02;100.00;101777.70;1954333;71;21098;-72
2022/05/09 10:03:19;;;;;;;12.43;7.40;;;;;;;24.53;100.00;101777.55;1962794;73;21014;-72
2022/05/09 10:05:48;;;;;;;14.23;6.87;;;;;;;24.31;100.00;101781.89;1962979;72;21109;-72
2022/05/09 10:08:32;;;;;;;10.53;6.40;;;;;;;24.62;100.00;101791.66;1962832;73;21006;-72
2022/05/09 10:11:22;;;;;;;10.08;6.65;;;;;;;24.30;100.00;101780.63;1963050;73;21033;-73
2022/05/09 10:13:55;;;;;;;9.35;6.58;;;;;;;24.46;100.00;101786.14;1954767;72;21124;-73
2022/05/09 10:16:33;;;;;;;19.50;17.17;;;;;;;24.44;100.00;101783.56;1963115;71;21475;-72
2022/05/09 10:19:03;;;;;;;11.40;6.58;;;;;;;24.38;100.00;101781.64;1962715;71;21030;-72
2022/05/09 10:24:48;;;;;;;14.25;8.68;;;;;;;24.37;100.00;101789.13;1962686;73;21093;-73
2022/05/09 10:27:29;;;;;;;9.93;6.55;;;;;;;24.91;100.00;101794.06;1962917;72;21014;-72
2022/05/09 10:30:00;;;;;;;12.33;8.93;;;;;;;25.31;100.00;101788.95;1961312;73;21058;-72
2022/05/09 10:32:37;;;;;;;12.98;8.13;;;;;;;25.51;100.00;101795.52;1962875;72;21146;-72
2022/05/09 10:35:25;;;;;;;8.95;5.90;;;;;;;25.34;100.00;101787.51;1962560;72;21081;-73
2022/05/09 10:38:02;;;;;;;11.95;7.10;;;;;;;24.93;100.00;101797.05;1962831;71;21468;-72
2022/05/09 10:40:40;;;;;;;10.63;7.33;;;;;;;24.44;100.00;101786.20;1962960;73;21116;-72
2022/05/09 10:43:16;;;;;;;9.90;6.80;;;;;;;24.50;100.00;101789.52;1962693;72;21139;-73
2022/05/09 10:45:49;;;;;;;10.65;6.90;;;;;;;24.79;100.00;101787.51;1962522;72;21057;-73
2022/05/09 10:48:22;;;;;;;16.25;9.53;;;;;;;25.06;100.00;101793.92;1960311;72;21033;-73
2022/05/09 10:51:02;;;;;;;13.70;9.13;;;;;;;25.60;100.00;101790.81;1958749;72;21107;-72
2022/05/09 10:53:39;;;;;;;10.32;6.60;;;;;;;25.56;100.00;101795.33;1962918;72;21134;-72
2022/05/09 10:56:27;;;;;;;17.98;9.13;;;;;;;25.44;100.00;101799.81;1962715;72;21057;-73
2022/05/09 10:59:25;;;;;;;11.78;7.10;;;;;;;25.59;100.00;101797.00;1962143;72;21099;-72
2022/05/09 11:02:07;;;;;;;14.68;8.83;;;;;;;25.51;100.00;101792.02;1963018;73;21047;-73
2022/05/09 11:04:37;;;;;;;8.50;6.05;;;;;;;25.61;100.00;101788.56;1962986;72;21046;-72
2022/05/09 11:07:27;;;;;;;10.13;6.87;;;;;;;25.23;100.00;101782.23;1962836;72;21033;-73
2022/05/09 11:10:04;;;;;;;16.57;8.68;;;;;;;25.08;100.00;101786.36;1960464;72;21042;-72
2022/05/09 11:13:03;;;;;;;9.98;6.62;;;;;;;25.24;100.00;101784.41;1972435;71;21030;-73
2022/05/09 11:15:33;;;;;;;9.80;6.42;;;;;;;24.98;100.00;101775.81;1956770;73;21148;-72
2022/05/09 11:18:24;;;;;;;11.30;6.35;;;;;;;24.98;100.00;101780.62;1963186;73;21026;-72
2022/05/09 11:21:03;;;;;;;14.05;8.48;;;;;;;24.83;100.00;101788.65;1962100;73;21482;-72
2022/05/09 11:23:37;;;;;;;22.93;14.45;;;;;;;24.28;100.00;101792.50;1895312;72;21157;-72
2022/05/09 11:26:05;;;;;;;;;;;;;;;24.80;100.00;101788.77;1961350;72;21049;-72
2022/05/09 11:28:58;;;;;;;28.42;15.35;;;;;;;23.99;100.00;101780.42;1958326;72;20226;-72
2022/05/09 11:31:37;;;;;;;14.78;8.78;;;;;;;23.84;100.00;101777.44;1956918;73;21097;-72
2022/05/09 11:34:25;;;;;;;11.63;7.30;;;;;;;23.77;100.00;101771.55;1935022;73;21122;-72
2022/05/09 11:37:19;;;;;;;8.50;6.55;;;;;;;23.54;100.00;101765.34;1917311;73;21041;-72
2022/05/09 11:39:52;;;;;;;16.25;7.12;;;;;;;23.31;100.00;101747.33;1917452;73;21596;-72
2022/05/09 11:45:18;;;;;;;;;;;;;;;22.90;100.00;101741.23;1920192;73;21089;-72